Tyro, Mississippi
Current Conditions -  °F | °C
As of 10:15 AM on Sunday 23 Nov 2014 (Local Time) from KUOX Reporting Station
Haze Haze  
Wind Chill: 55°   Ceiling: 100
Heat Index: 55°   Visibility: 1mi
Dew Point: 55°   Wind: 9mph
Humidity: 100%   Direction: 130°SE
Pressure: 29.64"   Gusts: 16mph
Location:  34.6336°N, 89.8203°W
Report Text: KUOX 231615Z AUTO 13008G14KT 1SM BR BKN001 OVC006 13/13 A2964 RMK AO2 PWINO PNO
Loading
Personal Weather Stations






























Interactive Weather Map New forecast layout! Learn more

10-Day Weather Forecast

Advertisements
Track Severe Weather on mobile